sensor_id;sensor_type;location;lat;lon;timestamp;P1;durP1;ratioP1;P2;durP2;ratioP2
20034;SDS011;10178;48.034;9.800;2023-04-06T00:01:35;8.73;;;5.90;;
20034;SDS011;10178;48.034;9.800;2023-04-06T00:04:00;8.20;;;5.80;;
20034;SDS011;10178;48.034;9.800;2023-04-06T00:06:26;7.43;;;5.70;;
20034;SDS011;10178;48.034;9.800;2023-04-06T00:08:52;8.10;;;6.30;;
20034;SDS011;10178;48.034;9.800;2023-04-06T00:11:18;7.60;;;5.87;;
20034;SDS011;10178;48.034;9.800;2023-04-06T00:13:44;7.87;;;6.30;;
20034;SDS011;10178;48.034;9.800;2023-04-06T00:16:10;8.27;;;5.60;;
20034;SDS011;10178;48.034;9.800;2023-04-06T00:18:35;8.30;;;6.33;;
20034;SDS011;10178;48.034;9.800;2023-04-06T00:21:01;6.17;;;4.97;;
20034;SDS011;10178;48.034;9.800;2023-04-06T00:23:27;8.63;;;5.80;;
20034;SDS011;10178;48.034;9.800;2023-04-06T00:25:53;9.10;;;5.93;;
20034;SDS011;10178;48.034;9.800;2023-04-06T00:28:18;8.83;;;6.07;;
20034;SDS011;10178;48.034;9.800;2023-04-06T00:30:50;7.83;;;5.70;;
20034;SDS011;10178;48.034;9.800;2023-04-06T00:33:17;7.30;;;5.40;;
20034;SDS011;10178;48.034;9.800;2023-04-06T00:35:43;6.77;;;5.60;;
20034;SDS011;10178;48.034;9.800;2023-04-06T00:38:09;7.97;;;5.97;;
20034;SDS011;10178;48.034;9.800;2023-04-06T00:40:35;7.70;;;6.07;;
20034;SDS011;10178;48.034;9.800;2023-04-06T00:43:01;9.97;;;6.20;;
20034;SDS011;10178;48.034;9.800;2023-04-06T00:45:26;7.70;;;6.07;;
20034;SDS011;10178;48.034;9.800;2023-04-06T00:47:52;9.73;;;6.00;;
20034;SDS011;10178;48.034;9.800;2023-04-06T00:50:18;7.60;;;6.10;;
20034;SDS011;10178;48.034;9.800;2023-04-06T00:52:43;8.17;;;6.23;;
20034;SDS011;10178;48.034;9.800;2023-04-06T00:55:09;8.63;;;6.17;;
20034;SDS011;10178;48.034;9.800;2023-04-06T00:57:35;9.43;;;7.37;;
20034;SDS011;10178;48.034;9.800;2023-04-06T01:00:01;12.17;;;8.63;;
20034;SDS011;10178;48.034;9.800;2023-04-06T01:02:27;15.80;;;9.93;;
20034;SDS011;10178;48.034;9.800;2023-04-06T01:04:53;8.47;;;6.40;;
20034;SDS011;10178;48.034;9.800;2023-04-06T01:07:20;8.93;;;5.80;;
20034;SDS011;10178;48.034;9.800;2023-04-06T01:09:46;7.33;;;5.93;;
20034;SDS011;10178;48.034;9.800;2023-04-06T01:12:12;8.23;;;6.00;;
20034;SDS011;10178;48.034;9.800;2023-04-06T01:14:39;9.87;;;6.30;;
20034;SDS011;10178;48.034;9.800;2023-04-06T01:17:05;8.63;;;6.33;;
20034;SDS011;10178;48.034;9.800;2023-04-06T01:19:33;7.40;;;6.07;;
20034;SDS011;10178;48.034;9.800;2023-04-06T01:21:59;8.87;;;6.70;;
20034;SDS011;10178;48.034;9.800;2023-04-06T01:24:24;8.87;;;6.20;;
20034;SDS011;10178;48.034;9.800;2023-04-06T01:26:50;8.17;;;5.67;;
20034;SDS011;10178;48.034;9.800;2023-04-06T01:29:16;7.50;;;5.87;;
20034;SDS011;10178;48.034;9.800;2023-04-06T01:31:42;7.27;;;6.10;;
20034;SDS011;10178;48.034;9.800;2023-04-06T01:34:08;9.70;;;6.40;;
20034;SDS011;10178;48.034;9.800;2023-04-06T01:36:33;9.27;;;6.37;;
20034;SDS011;10178;48.034;9.800;2023-04-06T01:38:59;9.07;;;6.20;;
20034;SDS011;10178;48.034;9.800;2023-04-06T01:41:25;5.90;;;5.20;;
20034;SDS011;10178;48.034;9.800;2023-04-06T01:43:51;7.90;;;5.70;;
20034;SDS011;10178;48.034;9.800;2023-04-06T01:46:20;8.17;;;6.37;;
20034;SDS011;10178;48.034;9.800;2023-04-06T01:49:08;8.93;;;5.50;;
20034;SDS011;10178;48.034;9.800;2023-04-06T01:51:34;8.43;;;6.10;;
20034;SDS011;10178;48.034;9.800;2023-04-06T01:54:00;7.87;;;6.00;;
20034;SDS011;10178;48.034;9.800;2023-04-06T01:56:26;8.10;;;6.23;;
20034;SDS011;10178;48.034;9.800;2023-04-06T01:58:51;7.67;;;5.70;;
20034;SDS011;10178;48.034;9.800;2023-04-06T02:01:17;7.57;;;5.83;;
20034;SDS011;10178;48.034;9.800;2023-04-06T02:03:43;8.97;;;6.10;;
20034;SDS011;10178;48.034;9.800;2023-04-06T02:06:09;7.77;;;5.93;;
20034;SDS011;10178;48.034;9.800;2023-04-06T02:08:35;8.90;;;5.87;;
20034;SDS011;10178;48.034;9.800;2023-04-06T02:11:00;8.67;;;6.13;;
20034;SDS011;10178;48.034;9.800;2023-04-06T02:13:26;8.23;;;6.27;;
20034;SDS011;10178;48.034;9.800;2023-04-06T02:15:52;8.30;;;5.80;;
20034;SDS011;10178;48.034;9.800;2023-04-06T02:18:17;7.60;;;6.27;;
20034;SDS011;10178;48.034;9.800;2023-04-06T02:20:43;14.60;;;9.03;;
20034;SDS011;10178;48.034;9.800;2023-04-06T02:23:09;9.73;;;7.50;;
20034;SDS011;10178;48.034;9.800;2023-04-06T02:25:35;9.80;;;7.43;;
20034;SDS011;10178;48.034;9.800;2023-04-06T02:28:01;9.00;;;7.50;;
20034;SDS011;10178;48.034;9.800;2023-04-06T02:30:26;9.40;;;6.50;;
20034;SDS011;10178;48.034;9.800;2023-04-06T02:32:53;7.43;;;6.07;;
20034;SDS011;10178;48.034;9.800;2023-04-06T02:35:19;10.83;;;6.10;;
20034;SDS011;10178;48.034;9.800;2023-04-06T02:37:45;7.47;;;5.97;;
20034;SDS011;10178;48.034;9.800;2023-04-06T02:40:11;7.60;;;5.60;;
20034;SDS011;10178;48.034;9.800;2023-04-06T02:42:36;8.83;;;6.30;;
20034;SDS011;10178;48.034;9.800;2023-04-06T02:45:02;9.27;;;6.10;;
20034;SDS011;10178;48.034;9.800;2023-04-06T02:47:28;7.53;;;6.00;;
20034;SDS011;10178;48.034;9.800;2023-04-06T02:49:53;8.03;;;6.60;;
20034;SDS011;10178;48.034;9.800;2023-04-06T02:52:19;10.67;;;6.47;;
20034;SDS011;10178;48.034;9.800;2023-04-06T02:54:45;7.87;;;6.03;;
20034;SDS011;10178;48.034;9.800;2023-04-06T02:57:10;9.30;;;6.77;;
20034;SDS011;10178;48.034;9.800;2023-04-06T02:59:36;7.43;;;6.27;;
20034;SDS011;10178;48.034;9.800;2023-04-06T03:02:02;8.73;;;6.50;;
20034;SDS011;10178;48.034;9.800;2023-04-06T03:04:27;9.23;;;6.73;;
20034;SDS011;10178;48.034;9.800;2023-04-06T03:06:53;9.13;;;6.17;;
20034;SDS011;10178;48.034;9.800;2023-04-06T03:09:20;9.23;;;6.47;;
20034;SDS011;10178;48.034;9.800;2023-04-06T03:11:46;10.33;;;6.80;;
20034;SDS011;10178;48.034;9.800;2023-04-06T03:14:11;8.87;;;6.10;;
20034;SDS011;10178;48.034;9.800;2023-04-06T03:16:37;8.63;;;6.53;;
20034;SDS011;10178;48.034;9.800;2023-04-06T03:19:03;7.27;;;6.20;;
20034;SDS011;10178;48.034;9.800;2023-04-06T03:21:28;8.43;;;6.70;;
20034;SDS011;10178;48.034;9.800;2023-04-06T03:23:54;8.97;;;6.67;;
20034;SDS011;10178;48.034;9.800;2023-04-06T03:26:19;8.87;;;6.63;;
20034;SDS011;10178;48.034;9.800;2023-04-06T03:28:47;8.97;;;6.20;;
20034;SDS011;10178;48.034;9.800;2023-04-06T03:31:12;9.50;;;6.70;;
20034;SDS011;10178;48.034;9.800;2023-04-06T03:33:38;7.73;;;6.70;;
20034;SDS011;10178;48.034;9.800;2023-04-06T03:36:04;7.93;;;6.47;;
20034;SDS011;10178;48.034;9.800;2023-04-06T03:38:30;8.40;;;6.40;;
20034;SDS011;10178;48.034;9.800;2023-04-06T03:40:56;7.33;;;6.47;;
20034;SDS011;10178;48.034;9.800;2023-04-06T03:43:21;9.13;;;7.13;;
20034;SDS011;10178;48.034;9.800;2023-04-06T03:45:47;8.00;;;7.00;;
20034;SDS011;10178;48.034;9.800;2023-04-06T03:48:12;9.17;;;6.53;;
20034;SDS011;10178;48.034;9.800;2023-04-06T03:50:38;9.50;;;6.80;;
20034;SDS011;10178;48.034;9.800;2023-04-06T03:53:04;7.93;;;6.57;;
20034;SDS011;10178;48.034;9.800;2023-04-06T03:55:29;8.43;;;6.23;;
20034;SDS011;10178;48.034;9.800;2023-04-06T03:57:55;8.07;;;6.73;;
20034;SDS011;10178;48.034;9.800;2023-04-06T04:00:21;13.47;;;8.30;;
20034;SDS011;10178;48.034;9.800;2023-04-06T04:02:48;10.63;;;8.33;;
20034;SDS011;10178;48.034;9.800;2023-04-06T04:05:14;11.33;;;9.07;;
20034;SDS011;10178;48.034;9.800;2023-04-06T04:07:40;13.53;;;8.30;;
20034;SDS011;10178;48.034;9.800;2023-04-06T04:10:05;12.20;;;8.03;;
20034;SDS011;10178;48.034;9.800;2023-04-06T04:12:31;11.10;;;7.60;;
20034;SDS011;10178;48.034;9.800;2023-04-06T04:14:57;12.70;;;7.90;;
20034;SDS011;10178;48.034;9.800;2023-04-06T04:17:23;8.77;;;6.93;;
20034;SDS011;10178;48.034;9.800;2023-04-06T04:19:50;9.30;;;7.30;;
20034;SDS011;10178;48.034;9.800;2023-04-06T04:22:15;10.93;;;7.83;;
20034;SDS011;10178;48.034;9.800;2023-04-06T04:24:41;9.83;;;7.40;;
20034;SDS011;10178;48.034;9.800;2023-04-06T04:27:06;9.47;;;7.23;;
20034;SDS011;10178;48.034;9.800;2023-04-06T04:29:32;11.60;;;7.67;;
20034;SDS011;10178;48.034;9.800;2023-04-06T04:31:58;9.70;;;7.60;;
20034;SDS011;10178;48.034;9.800;2023-04-06T04:34:23;10.33;;;7.03;;
20034;SDS011;10178;48.034;9.800;2023-04-06T04:36:50;9.47;;;7.03;;
20034;SDS011;10178;48.034;9.800;2023-04-06T04:39:16;11.33;;;6.90;;
20034;SDS011;10178;48.034;9.800;2023-04-06T04:41:42;9.30;;;7.43;;
20034;SDS011;10178;48.034;9.800;2023-04-06T04:44:07;9.50;;;7.10;;
20034;SDS011;10178;48.034;9.800;2023-04-06T04:46:33;10.33;;;7.23;;
20034;SDS011;10178;48.034;9.800;2023-04-06T04:48:59;12.40;;;7.40;;
20034;SDS011;10178;48.034;9.800;2023-04-06T04:51:24;10.10;;;7.43;;
20034;SDS011;10178;48.034;9.800;2023-04-06T04:53:50;10.53;;;7.80;;
20034;SDS011;10178;48.034;9.800;2023-04-06T04:56:16;9.60;;;7.57;;
20034;SDS011;10178;48.034;9.800;2023-04-06T04:58:41;10.23;;;7.83;;
20034;SDS011;10178;48.034;9.800;2023-04-06T05:01:07;9.87;;;7.80;;
20034;SDS011;10178;48.034;9.800;2023-04-06T05:03:33;10.93;;;6.97;;
20034;SDS011;10178;48.034;9.800;2023-04-06T05:06:00;11.53;;;7.37;;
20034;SDS011;10178;48.034;9.800;2023-04-06T05:08:26;8.73;;;7.33;;
20034;SDS011;10178;48.034;9.800;2023-04-06T05:10:51;9.30;;;6.53;;
20034;SDS011;10178;48.034;9.800;2023-04-06T05:13:17;12.60;;;7.63;;
20034;SDS011;10178;48.034;9.800;2023-04-06T05:15:43;9.60;;;6.93;;
20034;SDS011;10178;48.034;9.800;2023-04-06T05:18:09;9.90;;;7.20;;
20034;SDS011;10178;48.034;9.800;2023-04-06T05:20:36;10.87;;;7.40;;
20034;SDS011;10178;48.034;9.800;2023-04-06T05:23:03;10.73;;;7.70;;
20034;SDS011;10178;48.034;9.800;2023-04-06T05:25:28;9.00;;;7.17;;
20034;SDS011;10178;48.034;9.800;2023-04-06T05:27:54;10.17;;;7.20;;
20034;SDS011;10178;48.034;9.800;2023-04-06T05:30:20;10.27;;;7.13;;
20034;SDS011;10178;48.034;9.800;2023-04-06T05:32:46;10.67;;;8.07;;
20034;SDS011;10178;48.034;9.800;2023-04-06T05:35:12;33.03;;;17.90;;
20034;SDS011;10178;48.034;9.800;2023-04-06T05:37:38;29.17;;;17.20;;
20034;SDS011;10178;48.034;9.800;2023-04-06T05:40:04;33.30;;;16.83;;
20034;SDS011;10178;48.034;9.800;2023-04-06T05:42:37;25.20;;;14.70;;
20034;SDS011;10178;48.034;9.800;2023-04-06T05:45:04;23.80;;;14.67;;
20034;SDS011;10178;48.034;9.800;2023-04-06T05:47:30;30.50;;;14.80;;
20034;SDS011;10178;48.034;9.800;2023-04-06T05:49:56;24.40;;;14.50;;
20034;SDS011;10178;48.034;9.800;2023-04-06T05:52:22;24.80;;;15.27;;
20034;SDS011;10178;48.034;9.800;2023-04-06T05:54:48;31.63;;;15.10;;
20034;SDS011;10178;48.034;9.800;2023-04-06T05:57:13;26.47;;;15.87;;
20034;SDS011;10178;48.034;9.800;2023-04-06T05:59:39;29.07;;;15.30;;
20034;SDS011;10178;48.034;9.800;2023-04-06T06:02:05;26.60;;;16.13;;
20034;SDS011;10178;48.034;9.800;2023-04-06T06:04:31;27.70;;;15.77;;
20034;SDS011;10178;48.034;9.800;2023-04-06T06:06:56;29.23;;;15.73;;
20034;SDS011;10178;48.034;9.800;2023-04-06T06:09:22;28.73;;;15.60;;
20034;SDS011;10178;48.034;9.800;2023-04-06T06:11:48;24.93;;;15.57;;
20034;SDS011;10178;48.034;9.800;2023-04-06T06:14:14;27.37;;;16.13;;
20034;SDS011;10178;48.034;9.800;2023-04-06T06:16:40;28.50;;;16.10;;
20034;SDS011;10178;48.034;9.800;2023-04-06T06:19:06;27.93;;;16.27;;
20034;SDS011;10178;48.034;9.800;2023-04-06T06:21:31;28.30;;;16.03;;
20034;SDS011;10178;48.034;9.800;2023-04-06T06:23:57;24.67;;;15.30;;
20034;SDS011;10178;48.034;9.800;2023-04-06T06:26:23;25.60;;;15.67;;
20034;SDS011;10178;48.034;9.800;2023-04-06T06:28:48;26.30;;;15.40;;
20034;SDS011;10178;48.034;9.800;2023-04-06T06:31:14;25.57;;;15.20;;
20034;SDS011;10178;48.034;9.800;2023-04-06T06:33:40;26.23;;;16.30;;
20034;SDS011;10178;48.034;9.800;2023-04-06T06:36:05;27.27;;;15.07;;
20034;SDS011;10178;48.034;9.800;2023-04-06T06:38:31;24.93;;;14.90;;
20034;SDS011;10178;48.034;9.800;2023-04-06T06:40:57;23.17;;;15.07;;
20034;SDS011;10178;48.034;9.800;2023-04-06T06:43:22;26.67;;;15.23;;
20034;SDS011;10178;48.034;9.800;2023-04-06T06:45:48;22.43;;;14.97;;
20034;SDS011;10178;48.034;9.800;2023-04-06T06:48:15;25.93;;;14.80;;
20034;SDS011;10178;48.034;9.800;2023-04-06T06:50:40;24.40;;;13.83;;
20034;SDS011;10178;48.034;9.800;2023-04-06T06:53:06;22.23;;;14.13;;
20034;SDS011;10178;48.034;9.800;2023-04-06T06:55:32;20.60;;;13.00;;
20034;SDS011;10178;48.034;9.800;2023-04-06T06:57:57;22.23;;;13.87;;
20034;SDS011;10178;48.034;9.800;2023-04-06T07:00:23;21.80;;;13.73;;
20034;SDS011;10178;48.034;9.800;2023-04-06T07:02:49;23.07;;;13.20;;
20034;SDS011;10178;48.034;9.800;2023-04-06T07:05:15;15.87;;;11.93;;
20034;SDS011;10178;48.034;9.800;2023-04-06T07:07:41;17.60;;;12.10;;
20034;SDS011;10178;48.034;9.800;2023-04-06T07:10:07;18.97;;;12.43;;
20034;SDS011;10178;48.034;9.800;2023-04-06T07:12:33;16.53;;;11.70;;
20034;SDS011;10178;48.034;9.800;2023-04-06T07:14:59;17.20;;;11.40;;
20034;SDS011;10178;48.034;9.800;2023-04-06T07:17:25;17.77;;;11.87;;
20034;SDS011;10178;48.034;9.800;2023-04-06T07:19:51;17.93;;;11.70;;
20034;SDS011;10178;48.034;9.800;2023-04-06T07:22:16;20.37;;;12.27;;
20034;SDS011;10178;48.034;9.800;2023-04-06T07:24:42;14.93;;;10.90;;
20034;SDS011;10178;48.034;9.800;2023-04-06T07:27:08;16.33;;;11.37;;
20034;SDS011;10178;48.034;9.800;2023-04-06T07:29:33;16.50;;;11.30;;
20034;SDS011;10178;48.034;9.800;2023-04-06T07:31:59;15.40;;;10.93;;
20034;SDS011;10178;48.034;9.800;2023-04-06T07:34:25;13.33;;;9.57;;
20034;SDS011;10178;48.034;9.800;2023-04-06T07:36:50;14.40;;;10.10;;
20034;SDS011;10178;48.034;9.800;2023-04-06T07:39:18;15.07;;;10.03;;
20034;SDS011;10178;48.034;9.800;2023-04-06T07:41:44;16.17;;;9.97;;
20034;SDS011;10178;48.034;9.800;2023-04-06T07:44:10;18.30;;;10.53;;
20034;SDS011;10178;48.034;9.800;2023-04-06T07:46:35;15.97;;;10.50;;
20034;SDS011;10178;48.034;9.800;2023-04-06T07:49:01;14.07;;;10.47;;
20034;SDS011;10178;48.034;9.800;2023-04-06T07:51:27;14.83;;;10.23;;
20034;SDS011;10178;48.034;9.800;2023-04-06T07:53:53;14.57;;;10.27;;
20034;SDS011;10178;48.034;9.800;2023-04-06T07:56:18;11.87;;;9.30;;
20034;SDS011;10178;48.034;9.800;2023-04-06T07:58:45;12.30;;;9.47;;
20034;SDS011;10178;48.034;9.800;2023-04-06T08:01:11;16.67;;;9.63;;
20034;SDS011;10178;48.034;9.800;2023-04-06T08:03:37;12.33;;;9.13;;
20034;SDS011;10178;48.034;9.800;2023-04-06T08:06:02;11.87;;;9.47;;
20034;SDS011;10178;48.034;9.800;2023-04-06T08:08:28;16.13;;;9.73;;
20034;SDS011;10178;48.034;9.800;2023-04-06T08:10:54;12.40;;;9.83;;
20034;SDS011;10178;48.034;9.800;2023-04-06T08:13:20;12.20;;;9.00;;
20034;SDS011;10178;48.034;9.800;2023-04-06T08:15:46;12.70;;;8.32;;
20034;SDS011;10178;48.034;9.800;2023-04-06T08:18:12;11.45;;;8.45;;
20034;SDS011;10178;48.034;9.800;2023-04-06T08:20:38;12.50;;;8.80;;
20034;SDS011;10178;48.034;9.800;2023-04-06T08:23:04;13.97;;;10.13;;
20034;SDS011;10178;48.034;9.800;2023-04-06T08:25:31;11.57;;;8.38;;
20034;SDS011;10178;48.034;9.800;2023-04-06T08:27:59;16.57;;;9.77;;
20034;SDS011;10178;48.034;9.800;2023-04-06T08:30:24;11.70;;;8.33;;
20034;SDS011;10178;48.034;9.800;2023-04-06T08:32:50;13.13;;;8.77;;
20034;SDS011;10178;48.034;9.800;2023-04-06T08:35:15;14.00;;;8.60;;
20034;SDS011;10178;48.034;9.800;2023-04-06T08:37:43;13.77;;;8.75;;
20034;SDS011;10178;48.034;9.800;2023-04-06T08:40:09;15.52;;;9.27;;
20034;SDS011;10178;48.034;9.800;2023-04-06T08:42:38;11.25;;;8.57;;
20034;SDS011;10178;48.034;9.800;2023-04-06T08:45:05;12.13;;;8.57;;
20034;SDS011;10178;48.034;9.800;2023-04-06T08:47:32;11.90;;;8.33;;
20034;SDS011;10178;48.034;9.800;2023-04-06T08:49:59;11.40;;;7.78;;
20034;SDS011;10178;48.034;9.800;2023-04-06T08:52:29;12.67;;;8.10;;
20034;SDS011;10178;48.034;9.800;2023-04-06T08:54:57;11.90;;;8.93;;
20034;SDS011;10178;48.034;9.800;2023-04-06T08:57:23;11.77;;;8.50;;
20034;SDS011;10178;48.034;9.800;2023-04-06T08:59:49;11.27;;;8.20;;
20034;SDS011;10178;48.034;9.800;2023-04-06T09:02:17;9.75;;;7.65;;
20034;SDS011;10178;48.034;9.800;2023-04-06T09:04:52;11.10;;;7.97;;
20034;SDS011;10178;48.034;9.800;2023-04-06T09:07:18;13.75;;;8.30;;
20034;SDS011;10178;48.034;9.800;2023-04-06T09:09:44;13.30;;;8.47;;
20034;SDS011;10178;48.034;9.800;2023-04-06T09:12:28;10.05;;;7.20;;
20034;SDS011;10178;48.034;9.800;2023-04-06T09:14:56;10.40;;;7.20;;
20034;SDS011;10178;48.034;9.800;2023-04-06T09:17:23;10.95;;;7.45;;
20034;SDS011;10178;48.034;9.800;2023-04-06T09:19:50;10.87;;;7.30;;
20034;SDS011;10178;48.034;9.800;2023-04-06T09:22:16;9.75;;;7.32;;
20034;SDS011;10178;48.034;9.800;2023-04-06T09:24:43;10.10;;;7.67;;
20034;SDS011;10178;48.034;9.800;2023-04-06T09:27:10;9.85;;;7.45;;
20034;SDS011;10178;48.034;9.800;2023-04-06T09:29:36;8.95;;;7.00;;
20034;SDS011;10178;48.034;9.800;2023-04-06T09:32:05;13.88;;;8.25;;
20034;SDS011;10178;48.034;9.800;2023-04-06T09:34:33;12.70;;;8.05;;
20034;SDS011;10178;48.034;9.800;2023-04-06T09:36:59;12.90;;;7.90;;
20034;SDS011;10178;48.034;9.800;2023-04-06T09:39:25;12.73;;;8.27;;
20034;SDS011;10178;48.034;9.800;2023-04-06T09:41:51;11.20;;;7.72;;
20034;SDS011;10178;48.034;9.800;2023-04-06T09:44:17;10.60;;;7.65;;
20034;SDS011;10178;48.034;9.800;2023-04-06T09:46:44;12.85;;;6.43;;
20034;SDS011;10178;48.034;9.800;2023-04-06T09:49:11;9.37;;;6.67;;
20034;SDS011;10178;48.034;9.800;2023-04-06T09:54:21;8.48;;;6.75;;
20034;SDS011;10178;48.034;9.800;2023-04-06T09:56:51;10.35;;;6.45;;
20034;SDS011;10178;48.034;9.800;2023-04-06T10:02:08;7.05;;;5.75;;
20034;SDS011;10178;48.034;9.800;2023-04-06T10:05:05;8.75;;;6.07;;
20034;SDS011;10178;48.034;9.800;2023-04-06T10:07:39;8.70;;;6.60;;
20034;SDS011;10178;48.034;9.800;2023-04-06T10:10:06;9.23;;;6.33;;
20034;SDS011;10178;48.034;9.800;2023-04-06T10:12:33;10.48;;;6.15;;
20034;SDS011;10178;48.034;9.800;2023-04-06T10:14:58;7.17;;;5.50;;
20034;SDS011;10178;48.034;9.800;2023-04-06T10:17:25;7.20;;;5.35;;
20034;SDS011;10178;48.034;9.800;2023-04-06T10:19:59;8.45;;;5.82;;
20034;SDS011;10178;48.034;9.800;2023-04-06T10:22:41;9.25;;;6.43;;
20034;SDS011;10178;48.034;9.800;2023-04-06T10:25:30;9.27;;;5.75;;
20034;SDS011;10178;48.034;9.800;2023-04-06T10:28:01;7.60;;;6.13;;
20034;SDS011;10178;48.034;9.800;2023-04-06T10:30:30;7.10;;;5.35;;
20034;SDS011;10178;48.034;9.800;2023-04-06T10:32:57;9.73;;;6.80;;
20034;SDS011;10178;48.034;9.800;2023-04-06T10:35:23;11.80;;;6.60;;
20034;SDS011;10178;48.034;9.800;2023-04-06T10:40:26;7.53;;;5.13;;
20034;SDS011;10178;48.034;9.800;2023-04-06T10:42:53;12.32;;;6.40;;
20034;SDS011;10178;48.034;9.800;2023-04-06T10:45:20;7.35;;;5.70;;
20034;SDS011;10178;48.034;9.800;2023-04-06T10:47:47;5.57;;;5.00;;
20034;SDS011;10178;48.034;9.800;2023-04-06T10:50:15;6.97;;;5.43;;
20034;SDS011;10178;48.034;9.800;2023-04-06T10:52:43;8.27;;;6.97;;
20034;SDS011;10178;48.034;9.800;2023-04-06T10:55:10;8.50;;;7.05;;
20034;SDS011;10178;48.034;9.800;2023-04-06T10:57:40;9.35;;;6.45;;
20034;SDS011;10178;48.034;9.800;2023-04-06T11:00:06;9.77;;;5.85;;
20034;SDS011;10178;48.034;9.800;2023-04-06T11:02:33;8.95;;;5.93;;
20034;SDS011;10178;48.034;9.800;2023-04-06T11:05:00;9.38;;;6.70;;
20034;SDS011;10178;48.034;9.800;2023-04-06T11:07:26;11.23;;;6.93;;
20034;SDS011;10178;48.034;9.800;2023-04-06T11:09:54;10.07;;;6.97;;
20034;SDS011;10178;48.034;9.800;2023-04-06T11:12:24;5.70;;;4.93;;
20034;SDS011;10178;48.034;9.800;2023-04-06T11:14:54;10.93;;;7.63;;
20034;SDS011;10178;48.034;9.800;2023-04-06T11:17:29;10.10;;;7.00;;
20034;SDS011;10178;48.034;9.800;2023-04-06T11:19:56;10.18;;;5.50;;
20034;SDS011;10178;48.034;9.800;2023-04-06T11:22:22;9.77;;;8.38;;
20034;SDS011;10178;48.034;9.800;2023-04-06T11:24:48;9.75;;;7.78;;
20034;SDS011;10178;48.034;9.800;2023-04-06T11:27:14;7.50;;;5.55;;
20034;SDS011;10178;48.034;9.800;2023-04-06T11:29:41;6.65;;;5.28;;
20034;SDS011;10178;48.034;9.800;2023-04-06T11:32:07;10.52;;;8.55;;
20034;SDS011;10178;48.034;9.800;2023-04-06T11:34:37;13.57;;;8.20;;
20034;SDS011;10178;48.034;9.800;2023-04-06T11:37:07;8.80;;;6.68;;
20034;SDS011;10178;48.034;9.800;2023-04-06T11:39:43;7.47;;;5.85;;
20034;SDS011;10178;48.034;9.800;2023-04-06T11:42:12;7.95;;;6.30;;
20034;SDS011;10178;48.034;9.800;2023-04-06T11:44:45;9.23;;;7.10;;
20034;SDS011;10178;48.034;9.800;2023-04-06T11:47:11;11.30;;;7.80;;
20034;SDS011;10178;48.034;9.800;2023-04-06T11:49:38;9.27;;;7.00;;
20034;SDS011;10178;48.034;9.800;2023-04-06T11:52:22;9.75;;;7.18;;
20034;SDS011;10178;48.034;9.800;2023-04-06T11:54:49;6.00;;;5.28;;
20034;SDS011;10178;48.034;9.800;2023-04-06T11:57:16;8.80;;;6.00;;
20034;SDS011;10178;48.034;9.800;2023-04-06T11:59:45;8.15;;;5.68;;
20034;SDS011;10178;48.034;9.800;2023-04-06T12:02:10;7.65;;;5.90;;
20034;SDS011;10178;48.034;9.800;2023-04-06T12:04:36;8.23;;;5.93;;
20034;SDS011;10178;48.034;9.800;2023-04-06T12:07:03;7.22;;;6.18;;
20034;SDS011;10178;48.034;9.800;2023-04-06T12:09:29;11.38;;;7.55;;
20034;SDS011;10178;48.034;9.800;2023-04-06T12:11:55;11.25;;;6.93;;
20034;SDS011;10178;48.034;9.800;2023-04-06T12:14:21;8.68;;;7.40;;
20034;SDS011;10178;48.034;9.800;2023-04-06T12:16:47;8.13;;;6.43;;
20034;SDS011;10178;48.034;9.800;2023-04-06T12:19:13;9.70;;;5.97;;
20034;SDS011;10178;48.034;9.800;2023-04-06T12:21:38;9.18;;;5.72;;
20034;SDS011;10178;48.034;9.800;2023-04-06T12:24:05;7.88;;;5.40;;
20034;SDS011;10178;48.034;9.800;2023-04-06T12:26:31;5.57;;;4.32;;
20034;SDS011;10178;48.034;9.800;2023-04-06T12:29:01;5.03;;;4.15;;
20034;SDS011;10178;48.034;9.800;2023-04-06T12:31:31;6.28;;;5.28;;
20034;SDS011;10178;48.034;9.800;2023-04-06T12:33:58;5.88;;;4.50;;
20034;SDS011;10178;48.034;9.800;2023-04-06T12:36:23;5.47;;;4.45;;
20034;SDS011;10178;48.034;9.800;2023-04-06T12:38:50;6.45;;;4.75;;
20034;SDS011;10178;48.034;9.800;2023-04-06T12:41:16;8.98;;;4.53;;
20034;SDS011;10178;48.034;9.800;2023-04-06T12:43:42;5.05;;;4.30;;
20034;SDS011;10178;48.034;9.800;2023-04-06T12:46:09;7.95;;;4.65;;
20034;SDS011;10178;48.034;9.800;2023-04-06T12:48:35;5.93;;;4.25;;
20034;SDS011;10178;48.034;9.800;2023-04-06T12:51:02;5.40;;;4.43;;
20034;SDS011;10178;48.034;9.800;2023-04-06T12:53:29;5.07;;;3.90;;
20034;SDS011;10178;48.034;9.800;2023-04-06T12:55:55;5.55;;;3.78;;
20034;SDS011;10178;48.034;9.800;2023-04-06T12:58:22;6.43;;;4.22;;
20034;SDS011;10178;48.034;9.800;2023-04-06T13:00:48;5.70;;;4.20;;
20034;SDS011;10178;48.034;9.800;2023-04-06T13:03:15;4.15;;;3.70;;
20034;SDS011;10178;48.034;9.800;2023-04-06T13:05:45;5.47;;;3.92;;
20034;SDS011;10178;48.034;9.800;2023-04-06T13:08:12;4.60;;;3.40;;
20034;SDS011;10178;48.034;9.800;2023-04-06T13:10:43;4.43;;;3.45;;
20034;SDS011;10178;48.034;9.800;2023-04-06T13:13:09;6.70;;;4.43;;
20034;SDS011;10178;48.034;9.800;2023-04-06T13:15:35;5.50;;;4.30;;
20034;SDS011;10178;48.034;9.800;2023-04-06T13:18:01;6.07;;;3.40;;
20034;SDS011;10178;48.034;9.800;2023-04-06T13:20:27;6.05;;;4.68;;
20034;SDS011;10178;48.034;9.800;2023-04-06T13:22:53;4.90;;;4.25;;
20034;SDS011;10178;48.034;9.800;2023-04-06T13:25:19;4.88;;;3.22;;
20034;SDS011;10178;48.034;9.800;2023-04-06T13:27:45;5.45;;;3.50;;
20034;SDS011;10178;48.034;9.800;2023-04-06T13:30:12;6.82;;;4.07;;
20034;SDS011;10178;48.034;9.800;2023-04-06T13:32:38;6.53;;;3.47;;
20034;SDS011;10178;48.034;9.800;2023-04-06T13:35:04;4.50;;;3.45;;
20034;SDS011;10178;48.034;9.800;2023-04-06T13:37:31;6.72;;;5.00;;
20034;SDS011;10178;48.034;9.800;2023-04-06T13:39:57;7.53;;;4.15;;
20034;SDS011;10178;48.034;9.800;2023-04-06T13:42:22;4.85;;;3.50;;
20034;SDS011;10178;48.034;9.800;2023-04-06T13:44:48;5.28;;;3.80;;
20034;SDS011;10178;48.034;9.800;2023-04-06T13:47:15;4.50;;;3.53;;
20034;SDS011;10178;48.034;9.800;2023-04-06T13:49:41;6.20;;;4.78;;
20034;SDS011;10178;48.034;9.800;2023-04-06T13:52:07;5.15;;;4.25;;
20034;SDS011;10178;48.034;9.800;2023-04-06T13:54:34;5.45;;;3.95;;
20034;SDS011;10178;48.034;9.800;2023-04-06T13:57:00;5.80;;;4.75;;
20034;SDS011;10178;48.034;9.800;2023-04-06T13:59:31;6.80;;;4.97;;
20034;SDS011;10178;48.034;9.800;2023-04-06T14:01:57;4.90;;;3.90;;
20034;SDS011;10178;48.034;9.800;2023-04-06T14:04:23;6.80;;;5.10;;
20034;SDS011;10178;48.034;9.800;2023-04-06T14:06:48;6.10;;;4.88;;
20034;SDS011;10178;48.034;9.800;2023-04-06T14:09:14;6.55;;;4.10;;
20034;SDS011;10178;48.034;9.800;2023-04-06T14:11:40;8.38;;;4.68;;
20034;SDS011;10178;48.034;9.800;2023-04-06T14:14:05;4.57;;;3.53;;
20034;SDS011;10178;48.034;9.800;2023-04-06T14:16:31;9.85;;;5.10;;
20034;SDS011;10178;48.034;9.800;2023-04-06T14:18:57;7.20;;;5.15;;
20034;SDS011;10178;48.034;9.800;2023-04-06T14:21:23;6.13;;;5.25;;
20034;SDS011;10178;48.034;9.800;2023-04-06T14:23:49;10.07;;;5.68;;
20034;SDS011;10178;48.034;9.800;2023-04-06T14:26:15;5.72;;;5.07;;
20034;SDS011;10178;48.034;9.800;2023-04-06T14:28:41;7.00;;;5.38;;
20034;SDS011;10178;48.034;9.800;2023-04-06T14:31:11;6.55;;;4.93;;
20034;SDS011;10178;48.034;9.800;2023-04-06T14:33:38;8.45;;;5.05;;
20034;SDS011;10178;48.034;9.800;2023-04-06T14:36:04;6.05;;;4.57;;
20034;SDS011;10178;48.034;9.800;2023-04-06T14:38:31;7.43;;;5.20;;
20034;SDS011;10178;48.034;9.800;2023-04-06T14:40:57;5.57;;;4.53;;
20034;SDS011;10178;48.034;9.800;2023-04-06T14:43:23;9.05;;;4.88;;
20034;SDS011;10178;48.034;9.800;2023-04-06T14:45:49;7.95;;;4.47;;